Terminal Aerodrome Forecast
Issued by NWS Bismarck, ND

Home | Current Version | Previous Version | Graphics & Text | Print | Product List | Glossary On
Versions: 1 2 3 4 5 6 7 8 9 10 11 12 13 14 15 16 17 18 19 20 21 22
000
FTUS43 KBIS 271200 AAA
TAFBIS
TAF AMD
KBIS 271241Z 2713/2812 12012KT P6SM SCT005 BKN015 OVC100
      TEMPO 2715/2718 4SM -SN BR BKN005 OVC015
     FM271800 15012KT 4SM -SN BKN005 OVC012
     FM272100 15014KT 3SM -FZRASN SCT005 OVC015
     FM280300 14010KT P6SM SCT015 SCT070=

USA.gov is the U.S. government's official web portal to all federal, state and local government web resources and services.